createdAt,value
2023-01-26T00:00:22.485Z,0.70
2023-01-26T00:02:56.520Z,0.80
2023-01-26T00:05:23.696Z,0.80
2023-01-26T00:07:51.335Z,0.80
2023-01-26T00:10:25.367Z,0.60
2023-01-26T00:12:52.439Z,0.70
2023-01-26T00:15:26.331Z,0.60
2023-01-26T00:17:53.289Z,0.60
2023-01-26T00:20:27.362Z,0.70
2023-01-26T00:22:58.101Z,0.90
2023-01-26T00:25:31.571Z,1.00
2023-01-26T00:28:05.408Z,1.10
2023-01-26T00:30:39.534Z,1.10
2023-01-26T00:33:13.396Z,1.20
2023-01-26T00:35:40.527Z,1.30
2023-01-26T00:38:14.400Z,1.30
2023-01-26T00:40:48.531Z,1.30
2023-01-26T00:43:22.488Z,1.40
2023-01-26T00:45:56.468Z,1.50
2023-01-26T00:48:35.838Z,1.60
2023-01-26T00:51:03.056Z,1.60
2023-01-26T00:53:36.358Z,1.60
2023-01-26T00:56:03.332Z,1.60
2023-01-26T00:58:30.458Z,1.70
2023-01-26T01:01:04.452Z,1.70
2023-01-26T01:03:38.383Z,1.70
2023-01-26T01:06:08.585Z,1.70
2023-01-26T01:08:42.381Z,1.80
2023-01-26T01:11:17.417Z,1.80
2023-01-26T01:13:51.610Z,1.90
2023-01-26T01:16:25.448Z,1.80
2023-01-26T01:18:56.230Z,1.90
2023-01-26T01:21:23.745Z,1.90
2023-01-26T01:24:01.383Z,1.90
2023-01-26T01:26:37.843Z,2.00
2023-01-26T01:29:05.352Z,2.00
2023-01-26T01:31:39.540Z,2.10
2023-01-26T01:34:13.367Z,2.20
2023-01-26T01:36:47.738Z,2.30
2023-01-26T01:41:48.406Z,2.20
2023-01-26T01:44:30.667Z,2.40
2023-01-26T01:47:03.013Z,2.40
2023-01-26T01:49:51.426Z,2.60
2023-01-26T01:52:38.751Z,2.60
2023-01-26T01:55:16.462Z,2.60
2023-01-26T01:57:56.483Z,2.50
2023-01-26T02:00:24.203Z,2.60
2023-01-26T02:03:04.517Z,2.50
2023-01-26T02:05:33.700Z,2.60
2023-01-26T02:08:07.408Z,2.60
2023-01-26T02:10:34.413Z,2.60
2023-01-26T02:13:08.328Z,2.70
2023-01-26T02:15:35.353Z,2.70
2023-01-26T02:18:03.927Z,2.80
2023-01-26T02:20:49.393Z,2.70
2023-01-26T02:23:35.430Z,2.80
2023-01-26T02:26:22.845Z,2.80
2023-01-26T02:28:56.469Z,2.80
2023-01-26T02:31:30.424Z,3.00
2023-01-26T02:33:57.721Z,3.00
2023-01-26T02:36:36.507Z,3.00
2023-01-26T02:39:18.377Z,2.90
2023-01-26T02:41:52.426Z,3.00
2023-01-26T02:44:19.465Z,3.00
2023-01-26T02:46:53.413Z,2.90
2023-01-26T02:49:27.444Z,2.90
2023-01-26T02:51:54.597Z,2.90
2023-01-26T02:54:28.392Z,2.90
2023-01-26T02:56:55.414Z,2.80
2023-01-26T02:59:29.456Z,3.00
2023-01-26T03:02:03.653Z,3.10
2023-01-26T03:04:30.875Z,3.10
2023-01-26T03:07:04.411Z,3.10
2023-01-26T03:09:31.606Z,3.10
2023-01-26T03:12:05.492Z,3.00
2023-01-26T03:14:32.496Z,3.10
2023-01-26T03:17:06.412Z,3.10
2023-01-26T03:19:33.452Z,2.90
2023-01-26T03:22:00.801Z,3.10
2023-01-26T03:24:34.667Z,3.10
2023-01-26T03:27:01.852Z,3.10
2023-01-26T03:29:35.412Z,3.20
2023-01-26T03:32:02.526Z,3.20
2023-01-26T03:34:36.375Z,3.20
2023-01-26T03:37:03.832Z,3.10
2023-01-26T03:39:30.925Z,3.20
2023-01-26T03:42:04.406Z,3.10
2023-01-26T03:44:31.632Z,3.20
2023-01-26T03:47:05.455Z,3.10
2023-01-26T03:49:32.681Z,3.10
2023-01-26T03:52:06.548Z,3.10
2023-01-26T03:54:40.492Z,3.10
2023-01-26T03:57:07.794Z,3.00
2023-01-26T03:59:34.839Z,3.10
2023-01-26T04:02:08.535Z,3.20
2023-01-26T04:04:35.696Z,3.30
2023-01-26T04:07:09.513Z,3.10
2023-01-26T04:09:37.525Z,3.30
2023-01-26T04:12:11.640Z,3.30
2023-01-26T04:14:49.724Z,3.20
2023-01-26T04:17:25.444Z,3.20
2023-01-26T04:19:52.688Z,3.20
2023-01-26T04:22:19.770Z,3.30
2023-01-26T04:25:05.509Z,3.30
2023-01-26T04:27:34.525Z,3.40
2023-01-26T04:30:09.765Z,3.40
2023-01-26T04:32:37.223Z,3.30
2023-01-26T04:35:12.677Z,3.40
2023-01-26T04:37:39.912Z,3.30
2023-01-26T04:40:14.678Z,3.20
2023-01-26T04:42:41.938Z,3.60
2023-01-26T04:45:17.450Z,3.60
2023-01-26T04:47:46.051Z,3.40
2023-01-26T04:50:19.576Z,3.40
2023-01-26T04:52:53.555Z,3.40
2023-01-26T04:55:20.756Z,3.50
2023-01-26T04:57:47.942Z,3.50
2023-01-26T05:00:21.531Z,3.50
2023-01-26T05:02:48.622Z,3.50
2023-01-26T05:05:22.497Z,3.60
2023-01-26T05:07:49.682Z,3.40
2023-01-26T05:10:23.627Z,3.40
2023-01-26T05:12:57.612Z,3.50
2023-01-26T05:15:24.784Z,3.30
2023-01-26T05:17:58.716Z,3.30
2023-01-26T05:20:26.253Z,3.40
2023-01-26T05:23:00.534Z,3.30
2023-01-26T05:25:27.912Z,3.40
2023-01-26T05:28:01.564Z,3.40
2023-01-26T05:30:28.753Z,3.50
2023-01-26T05:33:09.498Z,3.50
2023-01-26T05:35:36.765Z,3.50
2023-01-26T05:38:10.451Z,3.60
2023-01-26T05:40:44.491Z,3.50
2023-01-26T05:43:12.318Z,3.60
2023-01-26T05:45:47.541Z,3.60
2023-01-26T05:48:14.652Z,3.50
2023-01-26T05:50:48.638Z,3.50
2023-01-26T05:53:15.739Z,3.60
2023-01-26T05:55:50.556Z,3.60
2023-01-26T05:58:17.691Z,3.60
2023-01-26T06:00:44.879Z,3.70
2023-01-26T06:03:18.536Z,3.80
2023-01-26T06:05:56.933Z,3.80
2023-01-26T06:08:30.517Z,3.90
2023-01-26T06:11:02.615Z,3.90
2023-01-26T06:13:36.467Z,3.90
2023-01-26T06:16:03.620Z,3.80
2023-01-26T06:18:37.529Z,3.70
2023-01-26T06:21:04.787Z,3.80
2023-01-26T06:23:31.881Z,3.90
2023-01-26T06:26:07.309Z,3.80
2023-01-26T06:28:35.560Z,3.70
2023-01-26T06:31:13.525Z,3.80
2023-01-26T06:33:40.513Z,3.80
2023-01-26T06:36:12.157Z,4.00
2023-01-26T06:38:46.578Z,4.00
2023-01-26T06:41:20.467Z,4.10
2023-01-26T06:43:49.068Z,4.00
2023-01-26T06:46:16.864Z,4.00
2023-01-26T06:48:50.672Z,3.90
2023-01-26T06:51:27.493Z,3.90
2023-01-26T06:53:59.827Z,3.80
2023-01-26T06:56:26.879Z,3.90
2023-01-26T06:59:09.570Z,3.70
2023-01-26T07:01:46.455Z,3.90
2023-01-26T07:04:19.476Z,4.00
2023-01-26T07:06:52.427Z,4.00
2023-01-26T07:09:19.345Z,3.90
2023-01-26T07:11:52.472Z,3.90
2023-01-26T07:14:19.447Z,3.80
2023-01-26T07:16:52.545Z,3.90
2023-01-26T07:19:26.241Z,3.90
2023-01-26T07:21:59.448Z,3.90
2023-01-26T07:24:32.484Z,3.90
2023-01-26T07:27:06.631Z,4.00
2023-01-26T07:29:33.771Z,4.10
2023-01-26T07:32:00.793Z,4.20
2023-01-26T07:34:34.523Z,4.20
2023-01-26T07:37:01.495Z,4.30
2023-01-26T07:39:28.577Z,4.40
2023-01-26T07:42:02.483Z,4.40
2023-01-26T07:44:29.441Z,4.30
2023-01-26T07:46:56.509Z,4.30
2023-01-26T07:49:30.522Z,4.50
2023-01-26T07:51:57.555Z,4.50
2023-01-26T07:54:31.532Z,4.40
2023-01-26T07:56:58.549Z,4.40
2023-01-26T07:59:25.527Z,4.60
2023-01-26T08:01:59.568Z,4.70
2023-01-26T08:04:26.542Z,4.60
2023-01-26T08:06:53.575Z,4.70
2023-01-26T08:09:27.555Z,4.70
2023-01-26T08:11:57.303Z,4.90
2023-01-26T08:14:45.091Z,4.80
2023-01-26T08:17:13.018Z,4.80
2023-01-26T08:19:46.560Z,4.90
2023-01-26T08:22:13.666Z,5.00
2023-01-26T08:24:47.539Z,5.10
2023-01-26T08:27:20.637Z,5.10
2023-01-26T08:29:47.659Z,5.00
2023-01-26T08:32:21.496Z,5.10
2023-01-26T08:34:54.565Z,5.10
2023-01-26T08:37:21.497Z,5.20
2023-01-26T08:39:48.575Z,5.10
2023-01-26T08:42:22.920Z,5.10
2023-01-26T08:44:50.012Z,5.20
2023-01-26T08:47:23.604Z,5.20
2023-01-26T08:49:50.541Z,5.30
2023-01-26T08:52:17.493Z,5.40
2023-01-26T08:54:50.567Z,5.60
2023-01-26T08:57:17.584Z,5.80
2023-01-26T08:59:51.537Z,5.90
2023-01-26T09:02:18.602Z,5.90
2023-01-26T09:04:52.578Z,6.00
2023-01-26T09:07:19.633Z,6.00
2023-01-26T09:09:53.535Z,6.10
2023-01-26T09:12:26.610Z,6.20
2023-01-26T09:15:00.508Z,6.30
2023-01-26T09:17:27.542Z,6.30
2023-01-26T09:20:00.578Z,6.40
2023-01-26T09:22:27.568Z,6.40
2023-01-26T09:24:54.570Z,6.50
2023-01-26T09:27:27.542Z,6.70
2023-01-26T09:29:54.663Z,6.50
2023-01-26T09:32:28.585Z,6.60
2023-01-26T09:34:55.824Z,6.80
2023-01-26T09:37:23.032Z,6.90
2023-01-26T09:39:56.588Z,6.80
2023-01-26T09:42:35.472Z,6.80
2023-01-26T09:45:20.533Z,6.90
2023-01-26T09:48:13.529Z,7.20
2023-01-26T09:51:26.558Z,7.30
2023-01-26T09:53:57.324Z,7.50
2023-01-26T09:56:34.543Z,7.70
2023-01-26T09:59:19.416Z,7.60
2023-01-26T10:02:00.593Z,7.80
2023-01-26T10:04:37.007Z,7.80
2023-01-26T10:07:15.524Z,7.80
2023-01-26T10:09:46.213Z,7.90
2023-01-26T10:12:28.560Z,8.00
2023-01-26T10:15:25.612Z,7.90
2023-01-26T10:17:52.543Z,8.00
2023-01-26T10:20:34.576Z,8.20
2023-01-26T10:23:21.517Z,8.30
2023-01-26T10:25:48.558Z,8.20
2023-01-26T10:28:25.608Z,8.50
2023-01-26T10:30:52.688Z,8.50
2023-01-26T10:33:37.592Z,8.50
2023-01-26T10:36:06.739Z,8.30
2023-01-26T10:38:40.568Z,8.70
2023-01-26T10:41:14.107Z,8.80
2023-01-26T10:43:48.570Z,8.90
2023-01-26T10:46:28.891Z,8.80
2023-01-26T10:49:08.564Z,8.80
2023-01-26T10:51:37.956Z,8.90
2023-01-26T10:54:26.632Z,8.70
2023-01-26T10:57:08.520Z,8.80
2023-01-26T11:00:01.129Z,8.90
2023-01-26T11:02:36.618Z,9.00
2023-01-26T11:05:07.781Z,8.90
2023-01-26T11:07:48.679Z,8.90
2023-01-26T11:10:23.815Z,8.90
2023-01-26T11:12:58.563Z,9.00
2023-01-26T11:15:26.109Z,8.90
2023-01-26T11:18:08.625Z,9.00
2023-01-26T11:20:54.805Z,9.10
2023-01-26T11:24:03.675Z,9.00
2023-01-26T11:27:05.631Z,9.20
2023-01-26T11:30:14.140Z,9.30
2023-01-26T11:33:20.603Z,9.30
2023-01-26T11:36:05.840Z,9.30
2023-01-26T11:38:45.553Z,9.30
2023-01-26T11:41:21.076Z,9.20
2023-01-26T11:44:32.631Z,9.40
2023-01-26T11:47:20.733Z,9.40
2023-01-26T11:50:24.644Z,9.50
2023-01-26T11:53:28.045Z,9.60
2023-01-26T11:56:23.582Z,9.60
2023-01-26T11:59:13.726Z,9.50
2023-01-26T12:01:50.605Z,9.60
2023-01-26T12:04:22.231Z,9.60
2023-01-26T12:07:13.653Z,9.70
2023-01-26T12:09:44.201Z,9.90
2023-01-26T12:12:46.685Z,9.90
2023-01-26T12:15:26.601Z,10.00
2023-01-26T12:18:03.201Z,10.10
2023-01-26T12:20:51.626Z,10.10
2023-01-26T12:23:37.708Z,10.10
2023-01-26T12:26:25.894Z,10.20
2023-01-26T12:29:23.618Z,10.30
2023-01-26T12:32:12.669Z,10.30
2023-01-26T12:34:46.710Z,10.40
2023-01-26T12:38:08.609Z,10.40
2023-01-26T12:41:02.214Z,10.10
2023-01-26T12:44:05.591Z,10.20
2023-01-26T12:46:36.046Z,10.40
2023-01-26T12:49:29.743Z,10.40
2023-01-26T12:52:02.566Z,10.40
2023-01-26T12:55:03.663Z,10.60
2023-01-26T12:57:48.708Z,10.60
2023-01-26T13:00:24.941Z,10.50
2023-01-26T13:03:28.602Z,10.40
2023-01-26T13:06:16.695Z,10.50
2023-01-26T13:09:02.245Z,10.40
2023-01-26T13:11:57.681Z,10.50
2023-01-26T13:14:44.602Z,10.50
2023-01-26T13:17:18.269Z,10.30
2023-01-26T13:19:51.621Z,10.50
2023-01-26T13:22:24.772Z,10.50
2023-01-26T13:25:05.752Z,10.50
2023-01-26T13:27:38.619Z,10.30
2023-01-26T13:30:30.712Z,10.40
2023-01-26T13:33:28.772Z,10.40
2023-01-26T13:35:55.770Z,10.30
2023-01-26T13:38:55.790Z,10.40
2023-01-26T13:41:29.696Z,10.40
2023-01-26T13:44:07.901Z,10.30
2023-01-26T13:47:08.889Z,10.40
2023-01-26T13:49:47.692Z,10.50
2023-01-26T13:52:26.956Z,10.40
2023-01-26T13:55:01.680Z,10.40
2023-01-26T13:57:36.744Z,10.40
2023-01-26T14:00:04.161Z,10.30
2023-01-26T14:02:41.792Z,10.40
2023-01-26T14:05:21.795Z,10.20
2023-01-26T14:07:55.713Z,10.20
2023-01-26T14:10:22.641Z,10.20
2023-01-26T14:12:53.806Z,10.30
2023-01-26T14:15:35.763Z,10.30
2023-01-26T14:18:04.013Z,10.20
2023-01-26T14:20:42.686Z,10.10
2023-01-26T14:23:13.828Z,10.20
2023-01-26T14:26:05.719Z,10.20
2023-01-26T14:28:36.014Z,10.20
2023-01-26T14:31:30.776Z,10.20
2023-01-26T14:33:58.998Z,10.30
2023-01-26T14:36:36.777Z,10.20
2023-01-26T14:39:03.992Z,10.10
2023-01-26T14:41:32.608Z,10.10
2023-01-26T14:44:06.765Z,10.10
2023-01-26T14:47:07.633Z,10.10
2023-01-26T14:50:12.002Z,10.20
2023-01-26T14:52:46.693Z,10.00
2023-01-26T14:55:27.333Z,10.00
2023-01-26T14:58:01.668Z,9.90
2023-01-26T15:00:33.411Z,9.90
2023-01-26T15:03:11.669Z,9.80
2023-01-26T15:05:45.759Z,9.70
2023-01-26T15:08:23.699Z,9.60
2023-01-26T15:11:05.721Z,9.60
2023-01-26T15:13:32.857Z,9.70
2023-01-26T15:16:20.814Z,9.60
2023-01-26T15:19:01.462Z,9.50
2023-01-26T15:21:44.722Z,9.50
2023-01-26T15:24:15.476Z,9.50
2023-01-26T15:26:42.576Z,9.40
2023-01-26T15:29:40.840Z,9.30
2023-01-26T15:32:32.591Z,9.20
2023-01-26T15:35:33.760Z,9.20
2023-01-26T15:38:11.992Z,9.20
2023-01-26T15:40:45.843Z,9.00
2023-01-26T15:43:12.742Z,9.00
2023-01-26T15:46:04.727Z,8.90
2023-01-26T15:48:31.734Z,8.80
2023-01-26T15:51:04.741Z,8.70
2023-01-26T15:53:31.732Z,8.70
2023-01-26T15:56:04.707Z,8.70
2023-01-26T15:58:38.727Z,8.60
2023-01-26T16:01:05.961Z,8.40
2023-01-26T16:03:39.749Z,8.40
2023-01-26T16:06:06.823Z,8.30
2023-01-26T16:08:40.775Z,8.30
2023-01-26T16:11:11.623Z,8.30
2023-01-26T16:13:38.497Z,8.20
2023-01-26T16:16:12.812Z,8.10
2023-01-26T16:18:40.520Z,8.00
2023-01-26T16:21:31.825Z,8.00
2023-01-26T16:23:59.334Z,7.90
2023-01-26T16:26:32.790Z,7.80
2023-01-26T16:28:59.890Z,7.70
2023-01-26T16:31:36.763Z,7.60
2023-01-26T16:34:03.669Z,7.50
2023-01-26T16:36:36.733Z,7.50
2023-01-26T16:39:03.779Z,7.50
2023-01-26T16:41:38.776Z,7.20
2023-01-26T16:44:14.126Z,7.10
2023-01-26T16:46:47.774Z,7.10
2023-01-26T16:49:15.041Z,7.10
2023-01-26T16:51:48.868Z,6.90
2023-01-26T16:54:15.785Z,6.80
2023-01-26T16:56:49.717Z,6.80
2023-01-26T16:59:16.687Z,6.70
2023-01-26T17:01:49.826Z,6.70
2023-01-26T17:04:23.771Z,6.60
2023-01-26T17:06:50.773Z,6.50
2023-01-26T17:09:17.788Z,6.50
2023-01-26T17:11:51.763Z,6.30
2023-01-26T17:14:24.764Z,6.40
2023-01-26T17:16:51.929Z,6.20
2023-01-26T17:19:25.805Z,6.30
2023-01-26T17:21:52.747Z,6.30
2023-01-26T17:24:19.940Z,6.30
2023-01-26T17:26:53.816Z,6.20
2023-01-26T17:29:21.090Z,6.10
2023-01-26T17:31:48.183Z,6.10
2023-01-26T17:34:21.876Z,6.10
2023-01-26T17:36:48.911Z,6.00
2023-01-26T17:39:22.753Z,6.00
2023-01-26T17:41:55.735Z,5.90
2023-01-26T17:44:28.833Z,6.00
2023-01-26T17:46:55.867Z,6.00
2023-01-26T17:49:29.779Z,6.00
2023-01-26T17:52:02.814Z,5.90
2023-01-26T17:54:29.808Z,5.80
2023-01-26T17:56:57.041Z,5.80
2023-01-26T17:59:30.788Z,5.70
2023-01-26T18:01:57.864Z,5.70
2023-01-26T18:04:24.923Z,5.70
2023-01-26T18:06:58.802Z,5.70
2023-01-26T18:09:25.822Z,5.60
2023-01-26T18:11:58.816Z,5.50
2023-01-26T18:14:25.927Z,5.50
2023-01-26T18:16:59.848Z,5.50
2023-01-26T18:19:26.926Z,5.40
2023-01-26T18:22:00.815Z,5.50
2023-01-26T18:24:27.880Z,5.40
2023-01-26T18:27:01.822Z,5.20
2023-01-26T18:29:29.047Z,5.20
2023-01-26T18:32:02.913Z,5.10
2023-01-26T18:34:29.974Z,4.90
2023-01-26T18:36:56.962Z,4.70
2023-01-26T18:39:30.883Z,4.40
2023-01-26T18:41:57.857Z,4.10
2023-01-26T18:44:31.823Z,4.00
2023-01-26T18:46:59.036Z,4.00
2023-01-26T18:49:32.842Z,3.70
2023-01-26T18:51:59.874Z,3.70
2023-01-26T18:54:33.778Z,3.70
2023-01-26T18:57:00.717Z,3.70
2023-01-26T18:59:33.858Z,3.60
2023-01-26T19:02:00.934Z,3.60
2023-01-26T19:04:34.861Z,3.60
2023-01-26T19:07:01.863Z,3.60
2023-01-26T19:09:42.843Z,3.50
2023-01-26T19:12:09.938Z,3.40
2023-01-26T19:14:36.889Z,3.30
2023-01-26T19:17:10.837Z,3.20
2023-01-26T19:19:37.858Z,3.20
2023-01-26T19:22:11.877Z,3.20
2023-01-26T19:24:38.884Z,3.20
2023-01-26T19:27:12.856Z,3.20
2023-01-26T19:29:39.875Z,3.00
2023-01-26T19:32:13.802Z,3.00
2023-01-26T19:34:40.929Z,2.90
2023-01-26T19:37:25.929Z,2.90
2023-01-26T19:39:59.908Z,2.80
2023-01-26T19:42:26.907Z,2.90
2023-01-26T19:45:00.985Z,2.90
2023-01-26T19:47:27.947Z,2.80
2023-01-26T19:49:54.865Z,2.80
2023-01-26T19:52:28.831Z,2.90
2023-01-26T19:55:02.895Z,2.80
2023-01-26T19:57:38.887Z,2.90
2023-01-26T20:00:06.850Z,2.80
2023-01-26T20:02:40.852Z,2.80
2023-01-26T20:05:08.472Z,2.70
2023-01-26T20:07:41.843Z,2.40
2023-01-26T20:10:09.982Z,2.20
2023-01-26T20:12:37.013Z,2.10
2023-01-26T20:15:12.114Z,2.20
2023-01-26T20:17:39.313Z,2.20
2023-01-26T20:20:07.335Z,2.10
2023-01-26T20:22:40.855Z,2.10
2023-01-26T20:25:14.917Z,2.00
2023-01-26T20:27:42.049Z,1.80
2023-01-26T20:30:16.877Z,1.80
2023-01-26T20:32:50.853Z,1.70
2023-01-26T20:35:18.009Z,1.70
2023-01-26T20:37:45.061Z,1.60
2023-01-26T20:40:18.855Z,1.70
2023-01-26T20:42:45.972Z,1.60
2023-01-26T20:45:20.006Z,1.70
2023-01-26T20:47:47.049Z,1.70
2023-01-26T20:50:14.271Z,1.70
2023-01-26T20:52:47.933Z,1.60
2023-01-26T20:55:15.315Z,1.60
2023-01-26T20:57:48.843Z,1.60
2023-01-26T21:00:16.491Z,1.60
2023-01-26T21:02:49.884Z,1.60
2023-01-26T21:05:23.868Z,1.70
2023-01-26T21:07:57.859Z,1.70
2023-01-26T21:10:30.841Z,1.70
2023-01-26T21:13:03.885Z,1.70
2023-01-26T21:15:30.932Z,1.60
2023-01-26T21:18:04.931Z,1.50
2023-01-26T21:20:32.002Z,1.50
2023-01-26T21:23:05.931Z,1.50
2023-01-26T21:25:32.949Z,1.50
2023-01-26T21:27:59.955Z,1.40
2023-01-26T21:30:33.908Z,1.40
2023-01-26T21:33:00.925Z,1.30
2023-01-26T21:35:34.897Z,1.30
2023-01-26T21:38:01.881Z,1.30
2023-01-26T21:40:34.903Z,1.40
2023-01-26T21:43:01.912Z,1.40
2023-01-26T21:45:35.952Z,1.40
2023-01-26T21:48:02.917Z,1.50
2023-01-26T21:50:36.053Z,1.50
2023-01-26T21:53:03.015Z,1.50
2023-01-26T21:55:36.915Z,1.40
2023-01-26T21:58:03.893Z,1.40
2023-01-26T22:00:36.976Z,1.40
2023-01-26T22:03:10.912Z,1.40
2023-01-26T22:05:37.880Z,1.40
2023-01-26T22:08:06.412Z,1.40
2023-01-26T22:10:41.977Z,1.40
2023-01-26T22:13:15.879Z,1.50
2023-01-26T22:15:42.847Z,1.50
2023-01-26T22:18:15.934Z,1.50
2023-01-26T22:20:43.209Z,1.50
2023-01-26T22:23:17.907Z,1.50
2023-01-26T22:25:44.820Z,1.50
2023-01-26T22:28:11.747Z,1.50
2023-01-26T22:30:44.938Z,1.60
2023-01-26T22:33:11.901Z,1.60
2023-01-26T22:35:44.930Z,1.60
2023-01-26T22:38:12.002Z,1.70
2023-01-26T22:40:45.945Z,1.80
2023-01-26T22:43:19.909Z,1.80
2023-01-26T22:45:52.961Z,1.80
2023-01-26T22:48:20.061Z,1.90
2023-01-26T22:50:53.903Z,1.90
2023-01-26T22:53:20.926Z,1.80
2023-01-26T22:55:57.948Z,1.90
2023-01-26T22:58:25.038Z,1.90
2023-01-26T23:00:58.965Z,1.90
2023-01-26T23:03:25.994Z,1.90
2023-01-26T23:05:59.953Z,1.90
2023-01-26T23:08:34.858Z,1.90
2023-01-26T23:11:18.513Z,2.00
2023-01-26T23:13:52.934Z,2.10
2023-01-26T23:16:27.018Z,2.00
2023-01-26T23:18:56.613Z,2.10
2023-01-26T23:21:30.882Z,2.20
2023-01-26T23:24:04.964Z,2.20
2023-01-26T23:26:32.010Z,2.20
2023-01-26T23:28:59.011Z,2.30
2023-01-26T23:31:32.957Z,2.40
2023-01-26T23:34:00.164Z,2.40
2023-01-26T23:36:33.965Z,2.40
2023-01-26T23:39:01.059Z,2.50
2023-01-26T23:41:34.990Z,2.60
2023-01-26T23:44:01.983Z,2.60
2023-01-26T23:46:36.065Z,2.60
2023-01-26T23:49:03.109Z,2.60
2023-01-26T23:51:36.985Z,2.60
2023-01-26T23:54:10.911Z,2.60
2023-01-26T23:56:43.941Z,2.60
2023-01-26T23:59:16.948Z,2.60
